createdAt,value
2017-11-21T00:01:01.155Z,10.80
2017-11-21T00:03:27.379Z,10.90
2017-11-21T00:05:53.668Z,10.90
2017-11-21T00:08:20.036Z,10.90
2017-11-21T00:10:46.250Z,10.90
2017-11-21T00:13:13.268Z,10.90
2017-11-21T00:15:39.521Z,10.90
2017-11-21T00:18:05.909Z,11.00
2017-11-21T00:20:32.241Z,10.90
2017-11-21T00:22:58.819Z,10.90
2017-11-21T00:25:25.091Z,10.90
2017-11-21T00:27:52.151Z,11.00
2017-11-21T00:30:18.383Z,11.10
2017-11-21T00:32:44.631Z,11.00
2017-11-21T00:35:11.030Z,10.80
2017-11-21T00:37:37.347Z,10.60
2017-11-21T00:40:04.326Z,11.00
2017-11-21T00:42:30.627Z,11.00
2017-11-21T00:44:56.980Z,11.00
2017-11-21T00:47:23.986Z,11.10
2017-11-21T00:49:53.070Z,11.30
2017-11-21T00:52:19.355Z,11.20
2017-11-21T00:54:45.634Z,11.20
2017-11-21T00:57:11.854Z,11.10
2017-11-21T00:59:38.100Z,11.10
2017-11-21T01:02:05.095Z,11.30
2017-11-21T01:04:31.370Z,11.30
2017-11-21T01:06:57.622Z,11.20
2017-11-21T01:09:23.930Z,11.30
2017-11-21T01:11:50.161Z,11.20
2017-11-21T01:14:16.503Z,10.90
2017-11-21T01:16:42.887Z,11.30
2017-11-21T01:19:09.126Z,11.20
2017-11-21T01:21:35.443Z,11.20
2017-11-21T01:24:01.714Z,11.10
2017-11-21T01:26:28.816Z,11.30
2017-11-21T01:28:55.783Z,11.20
2017-11-21T01:31:23.322Z,11.20
2017-11-21T01:33:49.594Z,11.30
2017-11-21T01:36:15.896Z,11.10
2017-11-21T01:38:42.168Z,11.20
2017-11-21T01:41:08.418Z,11.20
2017-11-21T01:43:35.482Z,11.20
2017-11-21T01:46:01.790Z,11.10
2017-11-21T01:48:28.846Z,11.20
2017-11-21T01:50:55.255Z,11.20
2017-11-21T01:53:21.555Z,11.30
2017-11-21T01:55:48.526Z,11.30
2017-11-21T01:58:14.809Z,11.30
2017-11-21T02:00:41.097Z,11.30
2017-11-21T02:03:07.374Z,11.50
2017-11-21T02:05:33.663Z,11.40
2017-11-21T02:08:00.668Z,11.30
2017-11-21T02:10:26.940Z,11.40
2017-11-21T02:12:53.247Z,11.60
2017-11-21T02:15:19.551Z,11.60
2017-11-21T02:17:45.824Z,11.20
2017-11-21T02:20:12.095Z,11.50
2017-11-21T02:22:38.398Z,12.00
2017-11-21T02:25:04.666Z,11.50
2017-11-21T02:27:30.927Z,11.40
2017-11-21T02:29:57.191Z,11.40
2017-11-21T02:32:23.862Z,11.60
2017-11-21T02:34:50.120Z,11.50
2017-11-21T02:37:16.376Z,11.50
2017-11-21T02:39:43.386Z,11.60
2017-11-21T02:42:09.653Z,11.60
2017-11-21T02:44:36.654Z,11.60
2017-11-21T02:47:02.944Z,11.90
2017-11-21T02:49:29.218Z,11.50
2017-11-21T02:51:55.501Z,11.50
2017-11-21T02:54:22.559Z,11.60
2017-11-21T02:56:49.573Z,11.60
2017-11-21T02:59:15.858Z,11.60
2017-11-21T03:01:42.100Z,11.50
2017-11-21T03:04:08.360Z,11.80
2017-11-21T03:06:34.615Z,11.60
2017-11-21T03:09:00.875Z,11.60
2017-11-21T03:11:27.106Z,11.50
2017-11-21T03:13:53.375Z,11.60
2017-11-21T03:16:20.475Z,11.70
2017-11-21T03:18:47.494Z,11.60
2017-11-21T03:21:26.149Z,11.60
2017-11-21T03:24:11.180Z,11.50
2017-11-21T03:26:38.087Z,11.60
2017-11-21T03:29:04.451Z,11.70
2017-11-21T03:31:31.473Z,11.60
2017-11-21T03:33:57.731Z,11.60
2017-11-21T03:36:23.986Z,11.70
2017-11-21T03:38:50.229Z,11.70
2017-11-21T03:41:16.454Z,11.70
2017-11-21T03:43:42.709Z,11.70
2017-11-21T03:46:08.983Z,11.80
2017-11-21T03:48:35.288Z,11.60
2017-11-21T03:51:02.302Z,11.70
2017-11-21T03:53:28.565Z,11.70
2017-11-21T03:55:55.016Z,11.70
2017-11-21T03:58:21.283Z,11.70
2017-11-21T04:00:52.420Z,11.70
2017-11-21T04:03:18.661Z,11.70
2017-11-21T04:05:44.914Z,11.70
2017-11-21T04:08:11.202Z,11.70
2017-11-21T04:10:37.459Z,11.70
2017-11-21T04:13:03.827Z,11.80
2017-11-21T04:15:30.100Z,11.70
2017-11-21T04:17:58.626Z,11.90
2017-11-21T04:20:25.624Z,12.00
2017-11-21T04:22:51.890Z,11.90
2017-11-21T04:25:18.176Z,11.90
2017-11-21T04:27:44.443Z,11.80
2017-11-21T04:30:10.713Z,11.80
2017-11-21T04:32:36.974Z,12.00
2017-11-21T04:35:03.958Z,12.10
2017-11-21T04:37:30.191Z,12.00
2017-11-21T04:39:57.175Z,12.00
2017-11-21T04:42:23.414Z,11.90
2017-11-21T04:44:49.766Z,12.10
2017-11-21T04:47:16.019Z,12.10
2017-11-21T04:49:42.268Z,12.10
2017-11-21T04:52:09.350Z,12.20
2017-11-21T04:54:36.378Z,12.10
2017-11-21T04:57:03.393Z,11.90
2017-11-21T04:59:29.646Z,11.80
2017-11-21T05:01:55.900Z,11.90
2017-11-21T05:04:22.241Z,11.80
2017-11-21T05:06:48.483Z,11.80
2017-11-21T05:09:14.779Z,11.80
2017-11-21T05:11:41.052Z,11.50
2017-11-21T05:14:07.624Z,11.80
2017-11-21T05:16:34.695Z,11.80
2017-11-21T05:19:01.006Z,11.30
2017-11-21T05:21:27.252Z,11.80
2017-11-21T05:23:53.520Z,11.70
2017-11-21T05:26:19.795Z,11.70
2017-11-21T05:28:46.047Z,11.70
2017-11-21T05:31:13.038Z,11.70
2017-11-21T05:33:39.516Z,11.70
2017-11-21T05:36:06.176Z,11.80
2017-11-21T05:38:33.203Z,11.80
2017-11-21T05:40:59.570Z,11.80
2017-11-21T05:43:25.819Z,11.70
2017-11-21T05:45:52.051Z,11.70
2017-11-21T05:48:18.338Z,11.80
2017-11-21T05:50:44.629Z,11.70
2017-11-21T05:53:10.891Z,11.90
2017-11-21T05:55:37.936Z,11.80
2017-11-21T05:58:05.006Z,11.80
2017-11-21T06:00:31.266Z,11.80
2017-11-21T06:02:57.511Z,11.70
2017-11-21T06:05:25.659Z,11.80
2017-11-21T06:07:51.956Z,11.80
2017-11-21T06:10:18.215Z,12.00
2017-11-21T06:12:44.503Z,11.90
2017-11-21T06:15:11.569Z,11.90
2017-11-21T06:17:39.705Z,11.90
2017-11-21T06:20:10.072Z,11.80
2017-11-21T06:22:36.379Z,11.80
2017-11-21T06:25:02.653Z,11.90
2017-11-21T06:27:28.933Z,11.90
2017-11-21T06:29:55.759Z,11.90
2017-11-21T06:32:22.027Z,12.00
2017-11-21T06:34:48.280Z,12.00
2017-11-21T06:37:14.527Z,12.00
2017-11-21T06:39:40.783Z,12.00
2017-11-21T06:42:07.011Z,12.00
2017-11-21T06:44:33.283Z,12.00
2017-11-21T06:46:59.534Z,11.90
2017-11-21T06:49:25.787Z,11.90
2017-11-21T06:51:52.803Z,12.00
2017-11-21T06:54:19.039Z,11.90
2017-11-21T06:56:45.284Z,12.00
2017-11-21T06:59:11.550Z,12.00
2017-11-21T07:01:37.847Z,12.10
2017-11-21T07:04:04.823Z,12.00
2017-11-21T07:06:31.075Z,12.00
2017-11-21T07:08:57.323Z,11.80
2017-11-21T07:11:23.598Z,12.10
2017-11-21T07:13:49.850Z,11.80
2017-11-21T07:16:16.139Z,11.90
2017-11-21T07:18:42.381Z,11.80
2017-11-21T07:21:08.666Z,11.80
2017-11-21T07:23:35.685Z,11.80
2017-11-21T07:26:01.916Z,11.80
2017-11-21T07:28:28.155Z,11.80
2017-11-21T07:30:54.423Z,11.90
2017-11-21T07:33:20.760Z,11.90
2017-11-21T07:35:47.059Z,12.00
2017-11-21T07:38:14.043Z,11.90
2017-11-21T07:40:40.514Z,11.90
2017-11-21T07:43:06.927Z,11.90
2017-11-21T07:45:33.442Z,11.90
2017-11-21T07:47:59.791Z,11.80
2017-11-21T07:50:26.051Z,11.80
2017-11-21T07:52:52.309Z,11.90
2017-11-21T07:55:18.561Z,12.00
2017-11-21T07:57:44.803Z,12.10
2017-11-21T08:00:11.090Z,12.30
2017-11-21T08:02:37.342Z,12.00
2017-11-21T08:05:03.636Z,12.00
2017-11-21T08:07:30.911Z,11.90
2017-11-21T08:09:57.267Z,12.00
2017-11-21T08:12:24.286Z,12.00
2017-11-21T08:14:50.564Z,12.00
2017-11-21T08:17:20.011Z,12.00
2017-11-21T08:19:46.393Z,12.10
2017-11-21T08:22:12.676Z,12.10
2017-11-21T08:24:38.946Z,12.10
2017-11-21T08:27:05.216Z,12.20
2017-11-21T08:29:31.502Z,12.20
2017-11-21T08:31:58.506Z,12.20
2017-11-21T08:34:24.726Z,12.20
2017-11-21T08:36:51.851Z,12.30
2017-11-21T08:39:18.868Z,12.30
2017-11-21T08:41:45.143Z,12.30
2017-11-21T08:44:11.400Z,12.30
2017-11-21T08:46:37.639Z,12.30
2017-11-21T08:49:03.855Z,12.40
2017-11-21T08:51:30.145Z,12.60
2017-11-21T08:53:56.398Z,12.40
2017-11-21T08:56:23.448Z,12.30
2017-11-21T08:58:49.727Z,12.30
2017-11-21T09:01:16.107Z,12.40
2017-11-21T09:03:42.338Z,12.00
2017-11-21T09:06:08.584Z,12.30
2017-11-21T09:08:34.826Z,12.40
2017-11-21T09:11:01.165Z,12.30
2017-11-21T09:13:27.419Z,12.30
2017-11-21T09:15:53.721Z,12.20
2017-11-21T09:18:20.010Z,12.20
2017-11-21T09:20:46.232Z,12.20
2017-11-21T09:23:12.475Z,12.20
2017-11-21T09:25:39.497Z,12.10
2017-11-21T09:28:05.749Z,12.10
2017-11-21T09:30:32.003Z,12.10
2017-11-21T09:32:58.239Z,12.10
2017-11-21T09:35:24.509Z,12.10
2017-11-21T09:37:51.031Z,12.20
2017-11-21T09:40:18.355Z,12.30
2017-11-21T09:42:44.603Z,12.30
2017-11-21T09:45:11.593Z,12.40
2017-11-21T09:47:37.865Z,12.30
2017-11-21T09:50:04.876Z,12.30
2017-11-21T09:52:31.106Z,12.30
2017-11-21T09:54:58.083Z,12.30
2017-11-21T09:57:27.126Z,12.30
2017-11-21T09:59:54.131Z,12.40
2017-11-21T10:02:20.423Z,12.40
2017-11-21T10:04:46.683Z,12.40
2017-11-21T10:07:12.957Z,12.40
2017-11-21T10:09:39.222Z,12.40
2017-11-21T10:12:05.458Z,12.40
2017-11-21T10:14:33.422Z,12.70
2017-11-21T10:17:00.455Z,12.40
2017-11-21T10:19:27.470Z,12.40
2017-11-21T10:21:54.448Z,12.30
2017-11-21T10:24:20.749Z,12.30
2017-11-21T10:26:47.750Z,12.20
2017-11-21T10:29:13.990Z,12.20
2017-11-21T10:31:44.994Z,12.20
2017-11-21T10:34:11.238Z,12.20
2017-11-21T10:36:38.216Z,12.30
2017-11-21T10:39:05.245Z,12.20
2017-11-21T10:41:32.227Z,12.20
2017-11-21T10:43:58.504Z,12.20
2017-11-21T10:46:24.742Z,12.30
2017-11-21T10:48:57.174Z,12.20
2017-11-21T10:51:24.179Z,12.30
2017-11-21T10:53:50.441Z,12.20
2017-11-21T10:56:16.668Z,12.20
2017-11-21T10:58:42.927Z,12.10
2017-11-21T11:01:09.299Z,12.10
2017-11-21T11:03:36.323Z,12.10
2017-11-21T11:06:02.570Z,12.40
2017-11-21T11:08:28.827Z,12.10
2017-11-21T11:10:55.690Z,12.10
2017-11-21T11:13:23.486Z,12.20
2017-11-21T11:15:49.735Z,12.30
2017-11-21T11:18:15.989Z,12.20
2017-11-21T11:20:42.231Z,12.20
2017-11-21T11:23:09.275Z,12.20
2017-11-21T11:25:36.299Z,12.20
2017-11-21T11:28:04.447Z,12.10
2017-11-21T11:30:31.479Z,12.20
2017-11-21T11:32:57.690Z,12.10
2017-11-21T11:35:23.947Z,12.20
2017-11-21T11:37:50.243Z,12.20
2017-11-21T11:40:16.618Z,12.00
2017-11-21T11:42:42.894Z,12.10
2017-11-21T11:45:13.567Z,12.00
2017-11-21T11:47:40.566Z,12.00
2017-11-21T11:50:06.817Z,12.00
2017-11-21T11:52:33.090Z,12.10
2017-11-21T11:54:59.359Z,12.10
2017-11-21T11:57:25.646Z,12.10
2017-11-21T11:59:51.884Z,12.00
2017-11-21T12:02:21.595Z,12.10
2017-11-21T12:04:48.567Z,12.00
2017-11-21T12:07:14.844Z,12.00
2017-11-21T12:09:41.107Z,12.00
2017-11-21T12:12:07.339Z,12.00
2017-11-21T12:14:34.355Z,12.00
2017-11-21T12:17:00.643Z,12.00
2017-11-21T12:19:33.141Z,11.90
2017-11-21T12:22:01.314Z,12.00
2017-11-21T12:24:27.562Z,11.90
2017-11-21T12:27:05.264Z,11.90
2017-11-21T12:29:31.740Z,11.90
2017-11-21T12:32:00.154Z,12.30
2017-11-21T12:34:26.452Z,11.80
2017-11-21T12:36:52.682Z,11.90
2017-11-21T12:39:18.915Z,11.80
2017-11-21T12:41:45.187Z,11.80
2017-11-21T12:44:12.948Z,11.90
2017-11-21T12:46:39.335Z,11.90
2017-11-21T12:49:06.567Z,11.90
2017-11-21T12:51:39.674Z,11.90
2017-11-21T12:54:05.918Z,11.90
2017-11-21T12:56:32.991Z,11.80
2017-11-21T12:58:59.214Z,11.50
2017-11-21T13:01:25.472Z,11.70
2017-11-21T13:03:51.739Z,11.70
2017-11-21T13:06:17.993Z,11.80
2017-11-21T13:08:48.233Z,11.80
2017-11-21T13:11:16.254Z,11.80
2017-11-21T13:13:42.532Z,11.80
2017-11-21T13:16:08.775Z,11.80
2017-11-21T13:18:35.057Z,11.80
2017-11-21T13:21:03.366Z,11.80
2017-11-21T13:23:29.638Z,11.80
2017-11-21T13:25:57.827Z,11.70
2017-11-21T13:28:25.652Z,11.70
2017-11-21T13:30:55.670Z,11.70
2017-11-21T13:33:24.876Z,11.70
2017-11-21T13:35:52.017Z,11.70
2017-11-21T13:38:18.455Z,11.30
2017-11-21T13:40:54.075Z,11.90
2017-11-21T13:43:20.713Z,12.10
2017-11-21T13:45:47.640Z,11.60
2017-11-21T13:48:13.970Z,11.80
2017-11-21T13:50:41.037Z,11.60
2017-11-21T13:53:17.071Z,11.70
2017-11-21T13:55:59.147Z,11.60
2017-11-21T13:58:25.540Z,11.50
2017-11-21T14:00:53.763Z,11.50
2017-11-21T14:03:20.353Z,11.50
2017-11-21T14:05:46.622Z,11.50
2017-11-21T14:08:12.926Z,11.50
2017-11-21T14:10:39.183Z,11.50
2017-11-21T14:13:06.360Z,11.40
2017-11-21T14:15:39.093Z,11.40
2017-11-21T14:18:05.420Z,11.40
2017-11-21T14:20:31.679Z,11.40
2017-11-21T14:22:57.917Z,11.30
2017-11-21T14:25:24.170Z,11.40
2017-11-21T14:27:50.430Z,11.30
2017-11-21T14:30:16.659Z,11.30
2017-11-21T14:32:49.767Z,11.30
2017-11-21T14:35:16.028Z,11.30
2017-11-21T14:37:42.261Z,11.30
2017-11-21T14:40:08.560Z,11.30
2017-11-21T14:42:34.870Z,11.30
2017-11-21T14:45:01.867Z,11.20
2017-11-21T14:47:28.129Z,11.20
2017-11-21T14:49:55.489Z,11.20
2017-11-21T14:52:22.541Z,11.20
2017-11-21T14:54:50.323Z,11.20
2017-11-21T14:57:16.572Z,11.20
2017-11-21T14:59:42.831Z,11.20
2017-11-21T15:02:09.089Z,11.10
2017-11-21T15:04:36.107Z,11.00
2017-11-21T15:07:02.397Z,11.00
2017-11-21T15:09:31.939Z,11.10
2017-11-21T15:11:58.275Z,11.00
2017-11-21T15:14:24.506Z,11.00
2017-11-21T15:16:50.751Z,11.10
2017-11-21T15:19:17.059Z,10.90
2017-11-21T15:21:43.321Z,11.00
2017-11-21T15:24:09.595Z,11.00
2017-11-21T15:26:37.418Z,10.90
2017-11-21T15:29:03.735Z,10.80
2017-11-21T15:31:30.011Z,10.80
2017-11-21T15:33:56.290Z,10.90
2017-11-21T15:36:22.615Z,10.80
2017-11-21T15:38:49.034Z,10.80
2017-11-21T15:41:15.321Z,10.80
2017-11-21T15:43:42.322Z,10.90
2017-11-21T15:46:08.599Z,10.90
2017-11-21T15:48:34.920Z,10.90
2017-11-21T15:51:01.254Z,11.00
2017-11-21T15:53:27.561Z,11.00
2017-11-21T15:55:53.804Z,11.00
2017-11-21T15:58:20.092Z,10.90
2017-11-21T16:00:47.199Z,10.90
2017-11-21T16:03:13.447Z,10.90
2017-11-21T16:05:39.755Z,11.00
2017-11-21T16:08:06.067Z,10.90
2017-11-21T16:10:32.405Z,10.90
2017-11-21T16:12:58.633Z,11.20
2017-11-21T16:15:25.041Z,10.80
2017-11-21T16:17:51.467Z,10.80
2017-11-21T16:20:17.795Z,10.80
2017-11-21T16:22:44.090Z,10.90
2017-11-21T16:25:10.747Z,10.90
2017-11-21T16:27:37.751Z,10.90
2017-11-21T16:30:04.792Z,10.80
2017-11-21T16:32:31.016Z,10.80
2017-11-21T16:34:57.255Z,10.70
2017-11-21T16:37:23.796Z,10.70
2017-11-21T16:39:51.922Z,10.70
2017-11-21T16:42:18.215Z,10.70
2017-11-21T16:44:45.192Z,10.80
2017-11-21T16:47:11.559Z,10.80
2017-11-21T16:49:37.850Z,10.70
2017-11-21T16:52:04.123Z,10.80
2017-11-21T16:54:30.370Z,10.70
2017-11-21T16:56:56.638Z,10.70
2017-11-21T16:59:23.146Z,10.30
2017-11-21T17:01:49.479Z,10.60
2017-11-21T17:04:16.793Z,10.60
2017-11-21T17:06:43.171Z,10.70
2017-11-21T17:09:09.447Z,10.60
2017-11-21T17:11:36.490Z,10.60
2017-11-21T17:14:08.948Z,10.60
2017-11-21T17:16:35.262Z,10.60
2017-11-21T17:19:01.581Z,10.20
2017-11-21T17:21:27.887Z,10.70
2017-11-21T17:23:54.879Z,10.90
2017-11-21T17:26:21.123Z,10.80
2017-11-21T17:28:48.072Z,10.80
2017-11-21T17:31:14.442Z,10.90
2017-11-21T17:33:40.743Z,10.90
2017-11-21T17:36:07.185Z,10.80
2017-11-21T17:38:34.215Z,10.80
2017-11-21T17:41:00.536Z,10.80
2017-11-21T17:43:26.934Z,10.80
2017-11-21T17:45:53.990Z,10.80
2017-11-21T17:48:20.974Z,10.80
2017-11-21T17:50:47.228Z,10.80
2017-11-21T17:53:14.881Z,10.80
2017-11-21T17:55:41.917Z,10.80
2017-11-21T17:58:08.263Z,10.80
2017-11-21T18:00:35.246Z,10.80
2017-11-21T18:03:01.595Z,10.80
2017-11-21T18:05:27.893Z,10.80
2017-11-21T18:07:54.194Z,10.80
2017-11-21T18:10:20.499Z,10.80
2017-11-21T18:12:46.755Z,10.90
2017-11-21T18:15:13.739Z,10.80
2017-11-21T18:17:40.014Z,10.30
2017-11-21T18:20:07.102Z,10.80
2017-11-21T18:22:34.177Z,10.80
2017-11-21T18:25:00.513Z,10.80
2017-11-21T18:27:27.478Z,10.80
2017-11-21T18:29:53.819Z,10.70
2017-11-21T18:32:24.980Z,10.70
2017-11-21T18:34:51.251Z,10.70
2017-11-21T18:37:17.534Z,10.60
2017-11-21T18:39:43.882Z,10.60
2017-11-21T18:42:10.146Z,10.60
2017-11-21T18:44:36.425Z,10.70
2017-11-21T18:47:02.687Z,10.60
2017-11-21T18:49:29.490Z,10.60
2017-11-21T18:51:55.724Z,10.60
2017-11-21T18:54:22.101Z,10.60
2017-11-21T18:56:48.344Z,10.60
2017-11-21T18:59:14.751Z,10.50
2017-11-21T19:01:41.090Z,10.60
2017-11-21T19:04:08.047Z,10.60
2017-11-21T19:09:06.418Z,10.70
2017-11-21T19:11:32.671Z,10.70
2017-11-21T19:13:58.902Z,10.70
2017-11-21T19:16:25.169Z,10.70
2017-11-21T19:18:52.491Z,10.60
2017-11-21T19:21:18.763Z,10.60
2017-11-21T19:23:45.871Z,10.60
2017-11-21T19:26:12.907Z,10.50
2017-11-21T19:28:39.978Z,10.60
2017-11-21T19:31:07.012Z,10.70
2017-11-21T19:33:33.425Z,10.70
2017-11-21T19:35:59.797Z,10.70
2017-11-21T19:38:26.808Z,10.70
2017-11-21T19:40:53.081Z,10.60
2017-11-21T19:43:19.431Z,10.60
2017-11-21T19:45:45.664Z,10.60
2017-11-21T19:48:11.950Z,10.60
2017-11-21T19:50:38.530Z,10.50
2017-11-21T19:53:04.778Z,10.50
2017-11-21T19:55:31.049Z,10.50
2017-11-21T19:57:57.314Z,10.50
2017-11-21T20:00:24.341Z,10.60
2017-11-21T20:02:50.578Z,10.60
2017-11-21T20:05:16.820Z,10.60
2017-11-21T20:07:43.191Z,10.60
2017-11-21T20:10:09.885Z,10.70
2017-11-21T20:12:36.179Z,10.60
2017-11-21T20:15:02.511Z,10.70
2017-11-21T20:17:28.811Z,11.00
2017-11-21T20:19:56.158Z,10.70
2017-11-21T20:22:22.426Z,10.70
2017-11-21T20:24:48.707Z,10.70
2017-11-21T20:27:14.967Z,11.00
2017-11-21T20:29:41.980Z,10.80
2017-11-21T20:32:08.243Z,10.70
2017-11-21T20:34:34.530Z,10.70
2017-11-21T20:37:00.786Z,10.60
2017-11-21T20:39:27.042Z,10.60
2017-11-21T20:41:53.295Z,10.70
2017-11-21T20:44:19.595Z,10.70
2017-11-21T20:46:45.872Z,10.70
2017-11-21T20:49:12.079Z,10.70
2017-11-21T20:51:38.517Z,10.70
2017-11-21T20:54:04.830Z,10.70
2017-11-21T20:56:31.098Z,10.80
2017-11-21T20:58:57.351Z,10.80
2017-11-21T21:01:23.602Z,10.80
2017-11-21T21:03:49.958Z,10.80
2017-11-21T21:06:16.215Z,11.00
2017-11-21T21:08:42.506Z,10.80
2017-11-21T21:11:08.820Z,10.80
2017-11-21T21:13:35.884Z,10.70
2017-11-21T21:16:02.887Z,10.80
2017-11-21T21:18:29.123Z,10.80
2017-11-21T21:20:55.359Z,10.70
2017-11-21T21:23:22.326Z,10.80
2017-11-21T21:25:48.603Z,10.80
2017-11-21T21:28:15.615Z,10.70
2017-11-21T21:30:41.889Z,10.70
2017-11-21T21:33:08.172Z,10.80
2017-11-21T21:35:35.193Z,10.80
2017-11-21T21:38:01.459Z,10.60
2017-11-21T21:40:27.739Z,10.80
2017-11-21T21:42:54.000Z,10.90
2017-11-21T21:45:20.253Z,10.80
2017-11-21T21:47:46.811Z,10.90
2017-11-21T21:50:13.075Z,10.90
2017-11-21T21:52:39.475Z,11.00
2017-11-21T21:55:05.703Z,10.90
2017-11-21T21:57:31.978Z,10.90
2017-11-21T21:59:58.232Z,10.90
2017-11-21T22:02:24.499Z,10.90
2017-11-21T22:04:51.497Z,10.80
2017-11-21T22:07:17.738Z,10.80
2017-11-21T22:09:43.999Z,10.90
2017-11-21T22:12:11.032Z,10.80
2017-11-21T22:14:37.961Z,10.80
2017-11-21T22:17:04.260Z,10.90
2017-11-21T22:19:31.235Z,10.90
2017-11-21T22:21:57.603Z,10.90
2017-11-21T22:24:25.590Z,10.70
2017-11-21T22:26:51.834Z,11.00
2017-11-21T22:29:18.840Z,10.70
2017-11-21T22:31:45.121Z,10.70
2017-11-21T22:34:11.386Z,10.70
2017-11-21T22:36:37.609Z,10.70
2017-11-21T22:39:04.634Z,10.70
2017-11-21T22:41:30.964Z,10.80
2017-11-21T22:43:57.307Z,10.80
2017-11-21T22:46:23.575Z,10.80
2017-11-21T22:48:49.840Z,10.80
2017-11-21T22:51:16.131Z,11.10
2017-11-21T22:53:42.443Z,10.80
2017-11-21T22:56:08.757Z,10.80
2017-11-21T22:58:34.990Z,10.70
2017-11-21T23:01:02.044Z,10.70
2017-11-21T23:03:28.335Z,10.70
2017-11-21T23:05:54.606Z,10.80
2017-11-21T23:08:20.858Z,10.80
2017-11-21T23:10:47.904Z,10.80
2017-11-21T23:13:14.220Z,10.80
2017-11-21T23:15:41.234Z,10.80
2017-11-21T23:18:07.466Z,11.00
2017-11-21T23:20:33.727Z,10.80
2017-11-21T23:23:00.727Z,10.90
2017-11-21T23:25:26.983Z,10.90
2017-11-21T23:27:53.281Z,10.80
2017-11-21T23:30:19.539Z,10.80
2017-11-21T23:32:45.824Z,10.80
2017-11-21T23:35:12.914Z,10.80
2017-11-21T23:37:39.174Z,10.90
2017-11-21T23:40:05.451Z,10.70
2017-11-21T23:42:31.682Z,10.80
2017-11-21T23:44:57.927Z,10.80
2017-11-21T23:47:24.168Z,10.70
2017-11-21T23:49:50.513Z,10.90
2017-11-21T23:52:16.750Z,11.20
2017-11-21T23:54:43.006Z,10.80
2017-11-21T23:57:09.250Z,10.80
2017-11-21T23:59:35.587Z,10.80
